createdAt,value
2023-12-27T00:00:10.301Z,26.77
2023-12-27T00:02:38.655Z,22.70
2023-12-27T00:05:08.105Z,17.57
2023-12-27T00:07:36.534Z,17.77
2023-12-27T00:10:05.346Z,22.50
2023-12-27T00:12:35.097Z,19.77
2023-12-27T00:15:03.513Z,17.63
2023-12-27T00:17:31.938Z,24.10
2023-12-27T00:20:00.253Z,20.73
2023-12-27T00:22:28.513Z,19.13
2023-12-27T00:24:56.861Z,21.10
2023-12-27T00:27:25.298Z,15.90
2023-12-27T00:29:55.048Z,18.03
2023-12-27T00:32:23.315Z,25.27
2023-12-27T00:34:51.638Z,16.97
2023-12-27T00:37:19.885Z,19.37
2023-12-27T00:39:49.057Z,14.57
2023-12-27T00:42:18.808Z,15.07
2023-12-27T00:44:47.095Z,17.53
2023-12-27T00:47:16.768Z,17.17
2023-12-27T00:49:45.138Z,17.73
2023-12-27T00:52:13.534Z,15.87
2023-12-27T00:54:41.851Z,19.40
2023-12-27T00:57:10.191Z,19.63
2023-12-27T00:59:38.512Z,17.73
2023-12-27T01:02:07.824Z,17.27
2023-12-27T01:04:37.512Z,29.57
2023-12-27T01:07:06.062Z,18.67
2023-12-27T01:09:34.781Z,20.37
2023-12-27T01:12:03.150Z,23.23
2023-12-27T01:14:31.476Z,21.17
2023-12-27T01:16:59.721Z,17.37
2023-12-27T01:19:28.056Z,20.40
2023-12-27T01:21:57.972Z,22.60
2023-12-27T01:24:26.369Z,19.43
2023-12-27T01:26:54.765Z,22.30
2023-12-27T01:29:23.064Z,24.37
2023-12-27T01:31:51.349Z,17.40
2023-12-27T01:34:23.646Z,19.60
2023-12-27T01:36:53.968Z,18.03
2023-12-27T01:39:24.122Z,23.40
2023-12-27T01:41:53.234Z,19.83
2023-12-27T01:44:21.598Z,18.30
2023-12-27T01:46:49.909Z,20.60
2023-12-27T01:49:18.380Z,23.70
2023-12-27T01:51:46.811Z,18.27
2023-12-27T01:54:15.963Z,20.30
2023-12-27T01:56:47.069Z,20.43
2023-12-27T01:59:15.990Z,21.07
2023-12-27T02:01:44.626Z,24.93
2023-12-27T02:04:13.333Z,18.60
2023-12-27T02:06:42.204Z,25.40
2023-12-27T02:09:10.573Z,18.50
2023-12-27T02:11:38.978Z,17.13
2023-12-27T02:14:09.533Z,14.67
2023-12-27T02:16:38.474Z,20.40
2023-12-27T02:19:08.394Z,18.13
2023-12-27T02:21:37.135Z,17.97
2023-12-27T02:24:07.750Z,13.47
2023-12-27T02:26:37.670Z,22.10
2023-12-27T02:29:06.160Z,25.63
2023-12-27T02:31:34.473Z,22.60
2023-12-27T02:34:03.219Z,18.23
2023-12-27T02:36:31.811Z,19.57
2023-12-27T02:39:00.140Z,17.53
2023-12-27T02:41:28.505Z,15.70
2023-12-27T02:43:58.191Z,22.07
2023-12-27T02:46:26.475Z,19.20
2023-12-27T02:48:55.017Z,23.20
2023-12-27T02:51:23.443Z,16.43
2023-12-27T02:53:51.858Z,18.23
2023-12-27T02:56:20.525Z,23.80
2023-12-27T02:58:48.788Z,17.63
2023-12-27T03:01:18.575Z,18.70
2023-12-27T03:03:47.306Z,22.10
2023-12-27T03:06:15.681Z,17.10
2023-12-27T03:08:43.956Z,18.30
2023-12-27T03:11:12.283Z,17.50
2023-12-27T03:13:40.786Z,18.93
2023-12-27T03:16:09.654Z,23.43
2023-12-27T03:18:39.844Z,19.77
2023-12-27T03:21:10.097Z,20.07
2023-12-27T03:23:38.352Z,26.83
2023-12-27T03:26:06.846Z,21.47
2023-12-27T03:28:35.101Z,22.47
2023-12-27T03:31:03.777Z,29.67
2023-12-27T03:33:32.508Z,27.60
2023-12-27T03:36:02.374Z,22.20
2023-12-27T03:38:30.659Z,28.57
2023-12-27T03:40:59.797Z,26.10
2023-12-27T03:43:28.045Z,28.57
2023-12-27T03:45:56.365Z,28.00
2023-12-27T03:48:24.809Z,31.43
2023-12-27T03:50:53.888Z,28.33
2023-12-27T03:53:23.537Z,23.90
2023-12-27T03:55:51.818Z,29.87
2023-12-27T03:58:20.059Z,21.23
2023-12-27T04:00:48.902Z,27.00
2023-12-27T04:03:17.330Z,26.93
2023-12-27T04:05:48.282Z,23.80
2023-12-27T04:08:16.606Z,29.03
2023-12-27T04:10:46.253Z,28.67
2023-12-27T04:13:14.530Z,30.23
2023-12-27T04:15:42.963Z,30.43
2023-12-27T04:18:13.360Z,25.73
2023-12-27T04:20:43.910Z,29.37
2023-12-27T04:23:12.264Z,27.43
2023-12-27T04:25:40.625Z,29.87
2023-12-27T04:28:11.379Z,29.70
2023-12-27T04:30:39.795Z,29.77
2023-12-27T04:33:08.483Z,29.40
2023-12-27T04:35:36.909Z,31.73
2023-12-27T04:38:05.472Z,29.43
2023-12-27T04:40:33.829Z,25.83
2023-12-27T04:43:02.366Z,36.17
2023-12-27T04:45:32.194Z,33.43
2023-12-27T04:48:00.897Z,32.93
2023-12-27T04:50:29.574Z,36.23
2023-12-27T04:52:57.971Z,30.80
2023-12-27T04:55:26.317Z,38.10
2023-12-27T04:57:54.765Z,25.13
2023-12-27T05:00:24.360Z,28.87
2023-12-27T05:02:54.433Z,23.03
2023-12-27T05:05:22.875Z,26.03
2023-12-27T05:07:51.153Z,30.10
2023-12-27T05:10:19.511Z,28.50
2023-12-27T05:12:47.853Z,29.13
2023-12-27T05:15:16.145Z,28.30
2023-12-27T05:17:44.768Z,28.87
2023-12-27T05:20:14.820Z,20.43
2023-12-27T05:22:43.131Z,23.27
2023-12-27T05:25:11.578Z,26.73
2023-12-27T05:27:40.092Z,22.57
2023-12-27T05:30:10.669Z,26.50
2023-12-27T05:32:39.340Z,25.10
2023-12-27T05:35:10.396Z,19.17
2023-12-27T05:37:40.129Z,23.13
2023-12-27T05:40:09.537Z,23.53
2023-12-27T05:42:37.927Z,35.93
2023-12-27T05:45:06.897Z,25.60
2023-12-27T05:47:35.499Z,26.70
2023-12-27T05:50:03.951Z,33.13
2023-12-27T05:52:32.263Z,25.60
2023-12-27T05:55:01.942Z,18.47
2023-12-27T05:57:30.324Z,21.30
2023-12-27T05:59:58.673Z,15.70
2023-12-27T06:02:27.081Z,15.40
2023-12-27T06:04:57.028Z,20.07
2023-12-27T06:07:25.517Z,20.33
2023-12-27T06:09:53.899Z,13.60
2023-12-27T06:12:23.510Z,18.63
2023-12-27T06:14:52.407Z,16.07
2023-12-27T06:17:20.674Z,13.43
2023-12-27T06:19:48.997Z,14.37
2023-12-27T06:22:17.982Z,12.20
2023-12-27T06:24:48.020Z,18.27
2023-12-27T06:27:16.547Z,14.33
2023-12-27T06:29:46.205Z,18.97
2023-12-27T06:32:14.749Z,17.80
2023-12-27T06:34:43.106Z,12.93
2023-12-27T06:37:11.505Z,13.23
2023-12-27T06:39:40.407Z,20.03
2023-12-27T06:42:09.667Z,16.40
2023-12-27T06:44:38.145Z,19.80
2023-12-27T06:47:07.859Z,16.67
2023-12-27T06:49:36.165Z,16.40
2023-12-27T06:52:04.800Z,16.13
2023-12-27T06:54:33.299Z,16.47
2023-12-27T06:57:01.775Z,18.27
2023-12-27T06:59:30.104Z,12.63
2023-12-27T07:01:58.433Z,15.57
2023-12-27T07:04:28.091Z,15.93
2023-12-27T07:06:56.458Z,18.10
2023-12-27T07:09:24.928Z,16.70
2023-12-27T07:11:53.235Z,16.43
2023-12-27T07:14:21.866Z,14.90
2023-12-27T07:16:50.225Z,15.10
2023-12-27T07:19:18.587Z,13.60
2023-12-27T07:21:49.447Z,11.53
2023-12-27T07:24:17.813Z,13.00
2023-12-27T07:26:46.095Z,10.23
2023-12-27T07:29:14.362Z,13.93
2023-12-27T07:31:42.694Z,13.80
2023-12-27T07:34:11.513Z,11.50
2023-12-27T07:36:39.993Z,14.17
2023-12-27T07:39:10.791Z,12.63
2023-12-27T07:41:39.106Z,10.83
2023-12-27T07:44:07.439Z,11.20
2023-12-27T07:46:36.173Z,11.23
2023-12-27T07:49:05.273Z,13.33
2023-12-27T07:51:33.695Z,15.33
2023-12-27T07:54:02.250Z,11.80
2023-12-27T07:56:32.124Z,11.57
2023-12-27T07:59:00.396Z,12.50
2023-12-27T08:01:31.965Z,10.73
2023-12-27T08:04:01.183Z,10.93
2023-12-27T08:06:29.931Z,11.63
2023-12-27T08:08:58.305Z,12.07
2023-12-27T08:11:26.697Z,10.37
2023-12-27T08:13:56.840Z,12.27
2023-12-27T08:16:26.056Z,12.10
2023-12-27T08:18:54.795Z,16.93
2023-12-27T08:21:23.310Z,12.07
2023-12-27T08:23:51.740Z,13.23
2023-12-27T08:26:21.145Z,11.97
2023-12-27T08:28:49.482Z,10.47
2023-12-27T08:31:19.172Z,8.60
2023-12-27T08:33:50.192Z,10.60
2023-12-27T08:36:18.686Z,9.30
2023-12-27T08:38:47.015Z,11.60
2023-12-27T08:41:15.259Z,9.97
2023-12-27T08:43:44.049Z,12.23
2023-12-27T08:46:12.428Z,11.17
2023-12-27T08:48:42.192Z,12.77
2023-12-27T08:51:11.600Z,13.40
2023-12-27T08:53:40.305Z,10.67
2023-12-27T08:56:09.687Z,9.23
2023-12-27T08:58:38.004Z,10.60
2023-12-27T09:01:06.505Z,9.90
2023-12-27T09:03:35.458Z,8.80
2023-12-27T09:06:05.795Z,11.80
2023-12-27T09:08:37.747Z,10.67
2023-12-27T09:11:06.283Z,9.60
2023-12-27T09:13:34.569Z,11.90
2023-12-27T09:16:04.766Z,9.23
2023-12-27T09:18:33.338Z,11.03
2023-12-27T09:21:01.717Z,8.57
2023-12-27T09:23:31.566Z,8.50
2023-12-27T09:26:00.035Z,10.17
2023-12-27T09:28:28.655Z,8.07
2023-12-27T09:30:57.152Z,12.20
2023-12-27T09:33:26.099Z,10.80
2023-12-27T09:35:54.475Z,10.37
2023-12-27T09:38:22.733Z,9.57
2023-12-27T09:40:53.538Z,9.23
2023-12-27T09:43:25.198Z,8.87
2023-12-27T09:45:55.331Z,13.23
2023-12-27T09:48:26.491Z,9.10
2023-12-27T09:50:55.586Z,10.93
2023-12-27T09:53:23.848Z,9.43
2023-12-27T09:55:55.289Z,9.57
2023-12-27T09:58:24.725Z,10.80
2023-12-27T10:00:53.893Z,11.70
2023-12-27T10:03:31.375Z,15.73
2023-12-27T10:06:07.288Z,11.07
2023-12-27T10:08:36.562Z,9.40
2023-12-27T10:11:10.048Z,8.20
2023-12-27T10:13:39.972Z,10.80
2023-12-27T10:16:08.806Z,10.77
2023-12-27T10:18:37.240Z,11.20
2023-12-27T10:21:05.646Z,12.27
2023-12-27T10:23:35.417Z,8.30
2023-12-27T10:26:06.701Z,9.23
2023-12-27T10:28:35.932Z,10.03
2023-12-27T10:31:06.497Z,11.83
2023-12-27T10:33:46.325Z,11.10
2023-12-27T10:36:14.865Z,10.63
2023-12-27T10:38:43.215Z,12.13
2023-12-27T10:41:13.036Z,10.40
2023-12-27T10:43:41.319Z,9.43
2023-12-27T10:46:10.434Z,12.13
2023-12-27T10:48:41.741Z,10.40
2023-12-27T10:51:11.191Z,10.37
2023-12-27T10:53:43.868Z,10.30
2023-12-27T10:56:15.787Z,9.77
2023-12-27T10:58:47.161Z,9.67
2023-12-27T11:01:17.164Z,9.60
2023-12-27T11:03:48.936Z,11.40
2023-12-27T11:06:19.330Z,10.30
2023-12-27T11:08:49.117Z,8.93
2023-12-27T11:11:24.085Z,8.40
2023-12-27T11:13:54.859Z,9.00
2023-12-27T11:16:24.324Z,7.63
2023-12-27T11:18:54.645Z,9.90
2023-12-27T11:21:22.969Z,10.07
2023-12-27T11:23:51.253Z,12.40
2023-12-27T11:26:21.046Z,7.13
2023-12-27T11:28:49.511Z,13.10
2023-12-27T11:31:18.077Z,13.93
2023-12-27T11:33:46.615Z,8.73
2023-12-27T11:36:15.032Z,10.47
2023-12-27T11:38:47.485Z,9.37
2023-12-27T11:41:15.798Z,10.13
2023-12-27T11:43:54.100Z,9.47
2023-12-27T11:46:29.871Z,10.33
2023-12-27T11:49:00.396Z,12.93
2023-12-27T11:51:31.790Z,11.47
2023-12-27T11:54:00.651Z,9.60
2023-12-27T11:56:31.229Z,8.17
2023-12-27T11:59:02.513Z,8.17
2023-12-27T12:01:31.964Z,8.03
2023-12-27T12:04:12.645Z,11.07
2023-12-27T12:07:13.857Z,12.27
2023-12-27T12:09:45.610Z,9.10
2023-12-27T12:12:18.676Z,10.07
2023-12-27T12:14:48.880Z,8.97
2023-12-27T12:17:17.903Z,10.50
2023-12-27T12:19:46.262Z,8.33
2023-12-27T12:22:15.618Z,10.27
2023-12-27T12:24:44.035Z,9.80
2023-12-27T12:27:12.475Z,10.23
2023-12-27T12:29:41.327Z,9.33
2023-12-27T12:32:12.854Z,8.00
2023-12-27T12:34:42.377Z,9.53
2023-12-27T12:37:10.886Z,9.17
2023-12-27T12:39:39.396Z,11.33
2023-12-27T12:42:09.659Z,10.03
2023-12-27T12:44:38.597Z,8.77
2023-12-27T12:47:08.959Z,10.70
2023-12-27T12:49:39.075Z,8.60
2023-12-27T12:52:08.905Z,8.93
2023-12-27T12:54:37.773Z,8.77
2023-12-27T12:57:07.236Z,8.60
2023-12-27T12:59:35.749Z,8.57
2023-12-27T13:02:04.097Z,10.80
2023-12-27T13:04:33.039Z,7.60
2023-12-27T13:07:05.190Z,11.03
2023-12-27T13:09:33.852Z,8.47
2023-12-27T13:12:02.848Z,10.43
2023-12-27T13:14:42.088Z,8.80
2023-12-27T13:17:10.573Z,9.40
2023-12-27T13:19:38.924Z,6.70
2023-12-27T13:22:10.188Z,10.27
2023-12-27T13:24:40.206Z,8.60
2023-12-27T13:27:08.752Z,9.73
2023-12-27T13:29:37.363Z,8.33
2023-12-27T13:32:06.748Z,11.23
2023-12-27T13:34:35.265Z,10.97
2023-12-27T13:37:03.966Z,9.53
2023-12-27T13:39:33.743Z,7.43
2023-12-27T13:42:02.250Z,6.37
2023-12-27T13:44:30.756Z,10.93
2023-12-27T13:47:00.160Z,8.03
2023-12-27T13:49:28.669Z,7.30
2023-12-27T13:51:57.098Z,7.63
2023-12-27T13:54:29.851Z,6.83
2023-12-27T13:57:01.277Z,5.03
2023-12-27T13:59:29.602Z,8.20
2023-12-27T14:01:58.888Z,5.73
2023-12-27T14:04:27.348Z,7.83
2023-12-27T14:06:55.772Z,8.40
2023-12-27T14:09:25.014Z,6.37
2023-12-27T14:11:53.575Z,7.53
2023-12-27T14:14:23.262Z,8.03
2023-12-27T14:16:54.761Z,6.53
2023-12-27T14:19:23.117Z,7.97
2023-12-27T14:21:51.652Z,7.73
2023-12-27T14:24:20.005Z,9.47
2023-12-27T14:26:50.508Z,4.43
2023-12-27T14:29:18.879Z,9.03
2023-12-27T14:31:49.211Z,8.13
2023-12-27T14:34:17.623Z,5.70
2023-12-27T14:36:46.154Z,5.97
2023-12-27T14:39:14.736Z,9.30
2023-12-27T14:41:44.631Z,4.63
2023-12-27T14:44:13.181Z,7.13
2023-12-27T14:46:43.893Z,8.90
2023-12-27T14:49:13.714Z,8.57
2023-12-27T14:51:42.778Z,8.77
2023-12-27T14:54:11.134Z,8.47
2023-12-27T14:56:39.545Z,10.27
2023-12-27T14:59:07.905Z,6.80
2023-12-27T15:01:36.309Z,6.37
2023-12-27T15:04:08.059Z,5.10
2023-12-27T15:06:38.282Z,9.40
2023-12-27T15:09:07.080Z,8.00
2023-12-27T15:11:35.580Z,9.37
2023-12-27T15:14:04.009Z,7.70
2023-12-27T15:16:32.338Z,9.63
2023-12-27T15:19:01.300Z,7.57
2023-12-27T15:21:30.312Z,6.63
2023-12-27T15:24:00.083Z,8.77
2023-12-27T15:26:29.182Z,7.67
2023-12-27T15:28:59.736Z,7.73
2023-12-27T15:31:29.227Z,7.57
2023-12-27T15:33:59.138Z,8.10
2023-12-27T15:36:28.698Z,7.77
2023-12-27T15:38:57.572Z,8.50
2023-12-27T15:41:29.592Z,6.63
2023-12-27T15:44:00.353Z,9.40
2023-12-27T15:46:31.342Z,10.87
2023-12-27T15:49:00.902Z,8.60
2023-12-27T15:51:35.095Z,6.23
2023-12-27T15:54:06.724Z,7.53
2023-12-27T15:56:42.450Z,7.23
2023-12-27T15:59:12.793Z,4.37
2023-12-27T16:01:44.059Z,7.33
2023-12-27T16:04:15.626Z,6.87
2023-12-27T16:06:46.713Z,5.43
2023-12-27T16:09:15.718Z,7.70
2023-12-27T16:11:45.549Z,7.43
2023-12-27T16:14:14.590Z,7.03
2023-12-27T16:16:43.391Z,7.23
2023-12-27T16:19:12.297Z,11.33
2023-12-27T16:21:40.910Z,5.57
2023-12-27T16:24:10.203Z,5.33
2023-12-27T16:26:38.514Z,5.37
2023-12-27T16:29:08.192Z,5.23
2023-12-27T16:31:36.690Z,6.30
2023-12-27T16:34:05.414Z,7.80
2023-12-27T16:36:33.886Z,4.20
2023-12-27T16:39:02.308Z,5.40
2023-12-27T16:41:30.594Z,8.57
2023-12-27T16:44:00.603Z,6.77
2023-12-27T16:46:30.434Z,5.37
2023-12-27T16:48:59.870Z,5.03
2023-12-27T16:51:28.455Z,5.80
2023-12-27T16:53:59.293Z,5.03
2023-12-27T16:56:27.897Z,5.00
2023-12-27T16:58:56.416Z,7.60
2023-12-27T17:01:24.840Z,4.67
2023-12-27T17:03:54.766Z,5.87
2023-12-27T17:06:24.231Z,6.37
2023-12-27T17:08:52.562Z,4.87
2023-12-27T17:11:20.877Z,7.47
2023-12-27T17:13:50.546Z,5.50
2023-12-27T17:16:18.957Z,4.90
2023-12-27T17:18:47.328Z,3.63
2023-12-27T17:21:20.489Z,5.43
2023-12-27T17:23:49.590Z,6.37
2023-12-27T17:26:17.892Z,5.17
2023-12-27T17:28:46.249Z,5.93
2023-12-27T17:31:14.673Z,5.43
2023-12-27T17:33:43.230Z,6.30
2023-12-27T17:36:11.911Z,8.13
2023-12-27T17:38:41.687Z,5.37
2023-12-27T17:41:10.088Z,6.37
2023-12-27T17:43:41.436Z,6.03
2023-12-27T17:46:09.825Z,6.63
2023-12-27T17:48:39.725Z,6.53
2023-12-27T17:51:08.210Z,5.63
2023-12-27T17:53:36.513Z,5.50
2023-12-27T17:56:06.879Z,4.40
2023-12-27T17:58:35.119Z,7.63
2023-12-27T18:01:03.636Z,6.30
2023-12-27T18:03:32.022Z,5.87
2023-12-27T18:06:00.379Z,6.73
2023-12-27T18:08:28.751Z,6.60
2023-12-27T18:10:58.147Z,5.83
2023-12-27T18:13:27.945Z,6.03
2023-12-27T18:15:56.330Z,3.13
2023-12-27T18:18:25.061Z,4.30
2023-12-27T18:20:53.527Z,4.13
2023-12-27T18:23:21.826Z,7.60
2023-12-27T18:25:50.132Z,4.07
2023-12-27T18:28:19.131Z,5.33
2023-12-27T18:30:48.965Z,3.50
2023-12-27T18:33:17.472Z,5.97
2023-12-27T18:35:47.043Z,4.03
2023-12-27T18:38:15.637Z,5.60
2023-12-27T18:40:44.058Z,5.73
2023-12-27T18:43:12.373Z,5.80
2023-12-27T18:45:40.839Z,5.63
2023-12-27T18:48:12.332Z,4.13
2023-12-27T18:50:41.214Z,3.97
2023-12-27T18:53:09.644Z,4.20
2023-12-27T18:55:38.156Z,4.87
2023-12-27T18:58:08.740Z,5.20
2023-12-27T19:00:37.364Z,4.97
2023-12-27T19:03:06.463Z,4.23
2023-12-27T19:05:36.359Z,5.23
2023-12-27T19:08:04.973Z,5.07
2023-12-27T19:10:33.260Z,3.90
2023-12-27T19:13:01.719Z,3.90
2023-12-27T19:15:30.188Z,5.00
2023-12-27T19:17:58.529Z,4.00
2023-12-27T19:20:27.758Z,3.47
2023-12-27T19:22:57.849Z,6.03
2023-12-27T19:25:26.410Z,4.00
2023-12-27T19:27:54.710Z,3.27
2023-12-27T19:30:23.142Z,5.27
2023-12-27T19:32:51.606Z,4.20
2023-12-27T19:35:20.136Z,5.30
2023-12-27T19:37:48.418Z,4.00
2023-12-27T19:40:18.767Z,4.47
2023-12-27T19:42:47.186Z,5.97
2023-12-27T19:45:16.963Z,4.30
2023-12-27T19:47:45.358Z,5.33
2023-12-27T19:50:13.703Z,4.57
2023-12-27T19:52:42.112Z,4.63
2023-12-27T19:55:13.832Z,3.00
2023-12-27T19:57:43.695Z,4.70
2023-12-27T20:00:14.152Z,5.27
2023-12-27T20:02:42.596Z,5.30
2023-12-27T20:05:11.319Z,5.20
2023-12-27T20:07:39.603Z,4.03
2023-12-27T20:10:09.023Z,4.37
2023-12-27T20:12:37.436Z,4.50
2023-12-27T20:15:10.703Z,5.87
2023-12-27T20:17:39.518Z,3.30
2023-12-27T20:20:08.924Z,3.07
2023-12-27T20:22:37.207Z,4.00
2023-12-27T20:25:06.113Z,3.90
2023-12-27T20:27:34.489Z,3.83
2023-12-27T20:30:02.785Z,4.27
2023-12-27T20:32:35.308Z,5.07
2023-12-27T20:35:04.216Z,3.53
2023-12-27T20:37:33.409Z,4.10
2023-12-27T20:40:01.788Z,3.70
2023-12-27T20:42:30.502Z,3.83
2023-12-27T20:44:59.096Z,4.63
2023-12-27T20:47:27.501Z,3.20
2023-12-27T20:49:57.347Z,5.83
2023-12-27T20:52:25.996Z,4.70
2023-12-27T20:54:54.397Z,5.00
2023-12-27T20:57:24.041Z,4.00
2023-12-27T20:59:52.448Z,3.33
2023-12-27T21:02:20.770Z,4.07
2023-12-27T21:04:49.297Z,3.80
2023-12-27T21:07:19.730Z,3.57
2023-12-27T21:09:48.170Z,5.53
2023-12-27T21:12:16.570Z,4.07
2023-12-27T21:14:44.888Z,3.60
2023-12-27T21:17:15.031Z,2.83
2023-12-27T21:19:44.421Z,3.97
2023-12-27T21:22:13.032Z,3.43
2023-12-27T21:24:42.743Z,7.00
2023-12-27T21:27:11.648Z,3.57
2023-12-27T21:29:40.042Z,3.47
2023-12-27T21:32:08.664Z,3.80
2023-12-27T21:34:37.066Z,3.50
2023-12-27T21:37:05.732Z,3.43
2023-12-27T21:39:34.588Z,5.70
2023-12-27T21:42:04.452Z,2.97
2023-12-27T21:44:33.907Z,3.50
2023-12-27T21:47:03.472Z,3.70
2023-12-27T21:49:32.073Z,4.00
2023-12-27T21:52:00.496Z,4.67
2023-12-27T21:54:28.864Z,3.90
2023-12-27T21:56:57.201Z,4.47
2023-12-27T21:59:26.954Z,3.93
2023-12-27T22:01:55.368Z,3.87
2023-12-27T22:04:23.901Z,3.90
2023-12-27T22:06:52.302Z,3.67
2023-12-27T22:09:20.678Z,3.30
2023-12-27T22:11:48.973Z,3.03
2023-12-27T22:14:17.397Z,4.67
2023-12-27T22:16:47.091Z,3.60
2023-12-27T22:19:15.512Z,3.50
2023-12-27T22:21:43.908Z,5.33
2023-12-27T22:24:12.275Z,4.30
2023-12-27T22:26:41.071Z,3.43
2023-12-27T22:29:09.432Z,4.10
2023-12-27T22:31:38.119Z,4.30
2023-12-27T22:34:08.049Z,4.47
2023-12-27T22:36:37.380Z,6.70
2023-12-27T22:39:06.013Z,4.90
2023-12-27T22:41:34.305Z,3.73
2023-12-27T22:44:02.654Z,3.97
2023-12-27T22:46:31.672Z,5.03
2023-12-27T22:49:00.008Z,3.77
2023-12-27T22:51:29.785Z,4.23
2023-12-27T22:53:58.607Z,3.30
2023-12-27T22:56:27.012Z,4.67
2023-12-27T22:58:55.266Z,5.90
2023-12-27T23:01:23.561Z,4.47
2023-12-27T23:03:51.924Z,3.73
2023-12-27T23:06:22.890Z,3.93
2023-12-27T23:08:52.698Z,3.87
2023-12-27T23:11:21.008Z,3.13
2023-12-27T23:13:49.262Z,6.10
2023-12-27T23:16:18.396Z,5.47
2023-12-27T23:18:46.873Z,4.63
2023-12-27T23:21:15.229Z,3.60
2023-12-27T23:23:43.550Z,6.77
2023-12-27T23:26:13.522Z,6.67
2023-12-27T23:28:41.860Z,4.63
2023-12-27T23:31:10.715Z,4.60
2023-12-27T23:33:39.190Z,6.00
2023-12-27T23:36:07.754Z,4.13
2023-12-27T23:38:36.018Z,4.77
2023-12-27T23:41:04.736Z,6.23
2023-12-27T23:43:35.562Z,7.63
2023-12-27T23:46:04.743Z,7.63
2023-12-27T23:48:33.465Z,5.03
2023-12-27T23:51:01.934Z,5.17
2023-12-27T23:53:30.210Z,4.97
2023-12-27T23:55:58.552Z,3.50
2023-12-27T23:58:26.836Z,4.03
